createdAt,value
2018-05-04T00:01:05.459Z,11.61
2018-05-04T00:03:34.544Z,11.62
2018-05-04T00:06:02.901Z,11.57
2018-05-04T00:08:31.248Z,11.63
2018-05-04T00:10:59.583Z,11.51
2018-05-04T00:13:27.965Z,11.29
2018-05-04T00:15:57.057Z,11.21
2018-05-04T00:18:26.155Z,11.23
2018-05-04T00:20:55.968Z,11.36
2018-05-04T00:23:24.307Z,11.35
2018-05-04T00:25:53.414Z,11.33
2018-05-04T00:28:21.776Z,11.35
2018-05-04T00:30:50.096Z,11.38
2018-05-04T00:33:18.445Z,11.30
2018-05-04T00:35:46.806Z,11.21
2018-05-04T00:38:15.151Z,11.16
2018-05-04T00:40:44.270Z,11.17
2018-05-04T00:43:12.885Z,11.05
2018-05-04T00:45:41.604Z,11.01
2018-05-04T00:48:10.689Z,10.95
2018-05-04T00:50:39.027Z,11.06
2018-05-04T00:53:07.391Z,11.03
2018-05-04T00:55:35.705Z,10.90
2018-05-04T00:58:04.043Z,10.76
2018-05-04T01:00:32.355Z,10.36
2018-05-04T01:03:00.656Z,10.21
2018-05-04T01:05:29.364Z,10.26
2018-05-04T01:07:57.727Z,10.17
2018-05-04T01:10:26.031Z,10.12
2018-05-04T01:12:55.169Z,10.14
2018-05-04T01:15:23.532Z,10.25
2018-05-04T01:17:51.838Z,10.18
2018-05-04T01:20:20.296Z,10.18
2018-05-04T01:22:48.555Z,10.11
2018-05-04T01:25:16.881Z,10.14
2018-05-04T01:27:45.739Z,10.28
2018-05-04T01:30:14.055Z,10.31
2018-05-04T01:32:42.372Z,10.23
2018-05-04T01:35:11.528Z,10.23
2018-05-04T01:37:39.862Z,10.37
2018-05-04T01:40:08.164Z,10.38
2018-05-04T01:42:36.559Z,10.34
2018-05-04T01:45:04.913Z,10.22
2018-05-04T01:47:33.224Z,10.17
2018-05-04T01:50:02.035Z,10.31
2018-05-04T01:52:30.357Z,10.28
2018-05-04T01:54:58.643Z,10.28
2018-05-04T01:57:26.990Z,10.31
2018-05-04T01:59:55.320Z,10.27
2018-05-04T02:02:23.637Z,10.29
2018-05-04T02:04:52.761Z,10.22
2018-05-04T02:07:21.072Z,10.22
2018-05-04T02:09:49.395Z,10.09
2018-05-04T02:12:18.692Z,10.13
2018-05-04T02:14:47.782Z,10.04
2018-05-04T02:17:16.846Z,10.10
2018-05-04T02:19:45.197Z,10.15
2018-05-04T02:22:13.535Z,10.08
2018-05-04T02:24:41.849Z,10.09
2018-05-04T02:27:10.195Z,9.80
2018-05-04T02:29:39.285Z,9.62
2018-05-04T02:32:08.399Z,9.57
2018-05-04T02:34:37.958Z,9.61
2018-05-04T02:37:06.296Z,9.25
2018-05-04T02:39:34.607Z,9.39
2018-05-04T02:42:02.952Z,9.34
2018-05-04T02:44:31.267Z,9.54
2018-05-04T02:46:59.620Z,9.62
2018-05-04T02:49:28.002Z,9.52
2018-05-04T02:51:56.319Z,9.60
2018-05-04T02:54:24.620Z,9.45
2018-05-04T02:56:53.953Z,9.34
2018-05-04T02:59:22.314Z,9.11
2018-05-04T03:01:50.644Z,9.09
2018-05-04T03:04:19.005Z,8.97
2018-05-04T03:06:47.315Z,8.91
2018-05-04T03:09:15.631Z,8.78
2018-05-04T03:11:44.010Z,8.97
2018-05-04T03:14:12.313Z,8.92
2018-05-04T03:16:40.620Z,8.78
2018-05-04T03:19:09.423Z,8.74
2018-05-04T03:21:37.719Z,8.98
2018-05-04T03:24:06.806Z,8.98
2018-05-04T03:26:35.923Z,9.15
2018-05-04T03:29:04.257Z,9.18
2018-05-04T03:31:34.069Z,9.18
2018-05-04T03:34:02.414Z,9.23
2018-05-04T03:36:30.724Z,9.40
2018-05-04T03:38:59.077Z,9.46
2018-05-04T03:41:27.491Z,9.39
2018-05-04T03:43:55.855Z,9.27
2018-05-04T03:46:24.175Z,9.14
2018-05-04T03:48:52.542Z,9.08
2018-05-04T03:51:20.881Z,9.08
2018-05-04T03:53:49.235Z,9.18
2018-05-04T03:56:17.582Z,9.19
2018-05-04T04:02:32.234Z,9.26
2018-05-04T04:05:00.584Z,9.13
2018-05-04T04:07:28.899Z,9.24
2018-05-04T04:09:57.220Z,9.36
2018-05-04T04:12:26.318Z,9.37
2018-05-04T04:14:55.434Z,9.34
2018-05-04T04:17:23.822Z,9.49
2018-05-04T04:19:52.166Z,9.69
2018-05-04T04:22:21.246Z,9.71
2018-05-04T04:24:49.915Z,9.90
2018-05-04T04:27:18.231Z,10.03
2018-05-04T04:29:47.319Z,10.06
2018-05-04T04:32:16.428Z,10.10
2018-05-04T04:34:45.498Z,9.90
2018-05-04T04:39:49.053Z,10.16
2018-05-04T04:42:17.377Z,10.30
2018-05-04T04:44:45.709Z,10.38
2018-05-04T04:47:14.374Z,10.58
2018-05-04T04:49:42.702Z,10.38
2018-05-04T04:52:11.009Z,10.67
2018-05-04T04:54:39.355Z,10.65
2018-05-04T04:57:07.673Z,10.70
2018-05-04T04:59:36.008Z,10.78
2018-05-04T05:02:04.486Z,10.98
2018-05-04T05:04:32.843Z,11.09
2018-05-04T05:07:01.179Z,11.06
2018-05-04T05:09:29.905Z,11.07
2018-05-04T05:11:58.996Z,11.10
2018-05-04T05:14:27.345Z,11.12
2018-05-04T05:16:55.689Z,11.30
2018-05-04T05:19:24.122Z,11.26
2018-05-04T05:21:53.253Z,11.42
2018-05-04T05:24:22.345Z,11.42
2018-05-04T05:26:50.671Z,11.55
2018-05-04T05:29:18.980Z,11.67
2018-05-04T05:31:47.654Z,11.88
2018-05-04T05:34:16.008Z,11.85
2018-05-04T05:36:44.339Z,11.75
2018-05-04T05:39:13.451Z,11.77
2018-05-04T05:41:41.781Z,11.93
2018-05-04T05:44:10.106Z,12.23
2018-05-04T05:46:38.911Z,12.21
2018-05-04T05:49:07.283Z,12.44
2018-05-04T05:51:35.588Z,12.58
2018-05-04T05:54:04.067Z,12.69
2018-05-04T05:56:32.425Z,12.71
2018-05-04T05:59:00.861Z,12.88
2018-05-04T06:01:29.258Z,13.10
2018-05-04T06:03:57.590Z,13.24
2018-05-04T06:06:26.098Z,13.33
2018-05-04T06:08:54.463Z,13.47
2018-05-04T06:11:22.778Z,13.52
2018-05-04T06:13:51.180Z,13.60
2018-05-04T06:16:20.187Z,13.82
2018-05-04T06:18:48.507Z,14.06
2018-05-04T06:21:16.867Z,14.03
2018-05-04T06:23:45.200Z,14.15
2018-05-04T06:26:13.517Z,14.30
2018-05-04T06:28:41.870Z,14.59
2018-05-04T06:31:10.232Z,14.68
2018-05-04T06:33:38.563Z,14.46
2018-05-04T06:36:06.937Z,14.75
2018-05-04T06:38:35.470Z,14.95
2018-05-04T06:41:03.823Z,15.00
2018-05-04T06:43:32.174Z,15.10
2018-05-04T06:46:00.529Z,15.30
2018-05-04T06:48:29.034Z,15.56
2018-05-04T06:50:57.397Z,15.50
2018-05-04T06:53:25.779Z,15.57
2018-05-04T06:55:54.115Z,15.77
2018-05-04T06:58:23.194Z,15.91
2018-05-04T07:00:51.982Z,15.77
2018-05-04T07:03:20.283Z,15.62
2018-05-04T07:05:48.669Z,15.54
2018-05-04T07:08:17.862Z,15.84
2018-05-04T07:10:46.198Z,15.76
2018-05-04T07:13:14.567Z,15.74
2018-05-04T07:15:42.914Z,15.56
2018-05-04T07:18:11.234Z,15.52
2018-05-04T07:20:39.582Z,15.57
2018-05-04T07:23:08.519Z,15.58
2018-05-04T07:25:36.862Z,15.55
2018-05-04T07:28:05.199Z,15.15
2018-05-04T07:30:34.316Z,15.34
2018-05-04T07:33:02.789Z,15.58
2018-05-04T07:35:31.119Z,15.64
2018-05-04T07:37:59.478Z,15.69
2018-05-04T07:40:27.817Z,15.82
2018-05-04T07:42:56.913Z,16.02
2018-05-04T07:45:26.325Z,16.04
2018-05-04T07:47:54.662Z,16.46
2018-05-04T07:50:23.350Z,16.88
2018-05-04T07:52:51.690Z,17.03
2018-05-04T07:55:20.019Z,17.03
2018-05-04T07:57:48.327Z,16.89
2018-05-04T08:00:16.734Z,16.61
2018-05-04T08:02:45.055Z,16.76
2018-05-04T08:05:13.380Z,17.38
2018-05-04T08:07:42.243Z,17.97
2018-05-04T08:10:11.308Z,18.15
2018-05-04T08:12:40.411Z,18.49
2018-05-04T08:15:08.862Z,18.58
2018-05-04T08:17:37.217Z,18.16
2018-05-04T08:20:05.653Z,18.46
2018-05-04T08:22:34.691Z,18.39
2018-05-04T08:25:03.074Z,18.79
2018-05-04T08:27:31.408Z,18.37
2018-05-04T08:30:00.455Z,18.35
2018-05-04T08:32:28.854Z,18.52
2018-05-04T08:34:57.191Z,18.99
2018-05-04T08:37:25.567Z,18.69
2018-05-04T08:39:54.666Z,19.25
2018-05-04T08:42:23.759Z,18.82
2018-05-04T08:44:52.154Z,18.97
2018-05-04T08:47:20.474Z,19.07
2018-05-04T08:49:48.776Z,19.53
2018-05-04T08:52:17.384Z,20.04
2018-05-04T08:54:45.691Z,19.11
2018-05-04T08:57:14.835Z,18.97
2018-05-04T08:59:43.172Z,18.44
2018-05-04T09:02:11.531Z,19.50
2018-05-04T09:04:39.848Z,20.18
2018-05-04T09:07:08.271Z,20.79
2018-05-04T09:09:36.637Z,21.19
2018-05-04T09:12:04.908Z,21.28
2018-05-04T09:14:33.314Z,20.89
2018-05-04T09:17:02.385Z,21.10
2018-05-04T09:19:30.731Z,21.29
2018-05-04T09:21:59.067Z,21.60
2018-05-04T09:24:28.148Z,21.60
2018-05-04T09:26:57.234Z,21.50
2018-05-04T09:29:25.608Z,22.03
2018-05-04T09:31:53.956Z,22.75
2018-05-04T09:34:22.299Z,23.04
2018-05-04T09:36:51.445Z,23.30
2018-05-04T09:39:19.739Z,23.23
2018-05-04T09:41:48.091Z,23.23
2018-05-04T09:44:16.462Z,23.35
2018-05-04T09:46:44.889Z,23.54
2018-05-04T09:49:13.234Z,23.65
2018-05-04T09:51:41.559Z,23.96
2018-05-04T09:54:09.864Z,24.05
2018-05-04T09:56:38.206Z,24.03
2018-05-04T09:59:07.678Z,24.24
2018-05-04T10:01:35.980Z,24.49
2018-05-04T10:04:04.302Z,24.51
2018-05-04T10:06:32.650Z,24.76
2018-05-04T10:09:01.779Z,24.72
2018-05-04T10:11:30.125Z,24.68
2018-05-04T10:13:59.220Z,24.53
2018-05-04T10:16:28.294Z,24.50
2018-05-04T10:18:56.633Z,24.32
2018-05-04T10:21:25.156Z,24.36
2018-05-04T10:23:53.504Z,24.09
2018-05-04T10:26:21.828Z,24.28
2018-05-04T10:28:50.196Z,24.00
2018-05-04T10:31:18.642Z,24.03
2018-05-04T10:33:47.684Z,24.18
2018-05-04T10:36:16.075Z,23.96
2018-05-04T10:38:44.396Z,23.93
2018-05-04T10:41:12.760Z,24.20
2018-05-04T10:43:41.508Z,23.86
2018-05-04T10:46:10.185Z,23.83
2018-05-04T10:48:38.499Z,24.07
2018-05-04T10:51:06.863Z,23.59
2018-05-04T10:53:35.963Z,23.49
2018-05-04T10:56:05.049Z,23.72
2018-05-04T10:58:34.166Z,23.18
2018-05-04T11:01:02.487Z,23.38
2018-05-04T11:03:30.811Z,23.69
2018-05-04T11:05:59.448Z,24.23
2018-05-04T11:08:27.771Z,24.49
2018-05-04T11:10:56.091Z,24.79
2018-05-04T11:13:24.434Z,24.93
2018-05-04T11:15:53.546Z,24.88
2018-05-04T11:18:21.899Z,25.19
2018-05-04T11:20:50.268Z,25.36
2018-05-04T11:23:18.582Z,25.31
2018-05-04T11:25:46.926Z,25.60
2018-05-04T11:28:15.641Z,25.19
2018-05-04T11:30:44.712Z,24.83
2018-05-04T11:33:13.003Z,24.54
2018-05-04T11:35:42.115Z,24.13
2018-05-04T11:38:10.440Z,24.03
2018-05-04T11:40:38.776Z,24.18
2018-05-04T11:43:07.155Z,24.56
2018-05-04T11:45:35.498Z,24.57
2018-05-04T11:48:03.872Z,24.86
2018-05-04T11:50:32.474Z,24.99
2018-05-04T11:53:00.946Z,25.06
2018-05-04T11:55:29.270Z,23.94
2018-05-04T11:57:57.660Z,23.78
2018-05-04T12:00:25.991Z,24.20
2018-05-04T12:02:55.089Z,24.66
2018-05-04T12:05:24.211Z,24.90
2018-05-04T12:07:52.535Z,24.94
2018-05-04T12:10:20.831Z,24.77
2018-05-04T12:12:50.168Z,24.55
2018-05-04T12:15:18.467Z,24.49
2018-05-04T12:17:46.798Z,24.84
2018-05-04T12:20:15.958Z,24.00
2018-05-04T12:22:44.296Z,24.10
2018-05-04T12:25:12.608Z,24.30
2018-05-04T12:27:40.989Z,24.79
2018-05-04T12:30:09.357Z,25.01
2018-05-04T12:32:37.683Z,25.28
2018-05-04T12:35:07.335Z,25.21
2018-05-04T12:37:35.653Z,25.12
2018-05-04T12:40:03.969Z,25.35
2018-05-04T12:42:33.073Z,25.36
2018-05-04T12:45:01.507Z,25.26
2018-05-04T12:47:29.820Z,25.65
2018-05-04T12:49:58.937Z,25.23
2018-05-04T12:52:27.289Z,25.41
2018-05-04T12:54:55.859Z,25.60
2018-05-04T12:57:24.495Z,25.44
2018-05-04T12:59:52.822Z,25.32
2018-05-04T13:02:21.136Z,25.03
2018-05-04T13:04:49.518Z,25.29
2018-05-04T13:07:17.855Z,25.27
2018-05-04T13:09:46.153Z,25.18
2018-05-04T13:12:15.270Z,25.19
2018-05-04T13:14:43.619Z,25.39
2018-05-04T13:17:11.948Z,25.46
2018-05-04T13:19:40.775Z,25.28
2018-05-04T13:22:09.134Z,25.29
2018-05-04T13:24:37.458Z,24.65
2018-05-04T13:27:06.571Z,23.78
2018-05-04T13:29:34.909Z,23.84
2018-05-04T13:32:03.206Z,24.34
2018-05-04T13:34:31.542Z,24.86
2018-05-04T13:36:59.886Z,25.13
2018-05-04T13:39:28.223Z,25.01
2018-05-04T13:41:56.685Z,25.36
2018-05-04T13:44:25.034Z,25.11
2018-05-04T13:46:53.328Z,25.08
2018-05-04T13:49:21.693Z,24.84
2018-05-04T13:51:50.032Z,24.69
2018-05-04T13:54:19.221Z,24.92
2018-05-04T13:56:47.529Z,24.26
2018-05-04T13:59:15.874Z,23.77
2018-05-04T14:01:44.224Z,24.18
2018-05-04T14:04:12.716Z,24.09
2018-05-04T14:06:41.035Z,23.77
2018-05-04T14:09:10.156Z,24.08
2018-05-04T14:11:38.518Z,24.01
2018-05-04T14:14:06.836Z,23.81
2018-05-04T14:16:35.186Z,24.01
2018-05-04T14:19:03.539Z,24.15
2018-05-04T14:21:31.863Z,24.16
2018-05-04T14:24:00.193Z,23.80
2018-05-04T14:26:28.824Z,23.91
2018-05-04T14:28:57.135Z,24.11
2018-05-04T14:31:25.451Z,24.25
2018-05-04T14:33:54.700Z,24.23
2018-05-04T14:36:23.010Z,24.28
2018-05-04T14:38:51.357Z,24.01
2018-05-04T14:41:19.760Z,23.77
2018-05-04T14:43:48.104Z,23.35
2018-05-04T14:46:16.682Z,23.22
2018-05-04T14:48:45.515Z,23.47
2018-05-04T14:51:13.827Z,23.55
2018-05-04T14:53:42.134Z,23.31
2018-05-04T14:56:10.498Z,23.36
2018-05-04T14:58:38.921Z,23.54
2018-05-04T15:01:07.244Z,23.70
2018-05-04T15:03:35.567Z,23.64
2018-05-04T15:06:03.895Z,23.49
2018-05-04T15:08:33.003Z,23.43
2018-05-04T15:11:01.876Z,23.53
2018-05-04T15:13:30.202Z,23.62
2018-05-04T15:15:58.578Z,23.50
2018-05-04T15:18:26.947Z,23.87
2018-05-04T15:20:55.297Z,23.79
2018-05-04T15:23:24.400Z,23.46
2018-05-04T15:25:53.526Z,23.23
2018-05-04T15:28:21.867Z,23.14
2018-05-04T15:30:50.249Z,23.14
2018-05-04T15:33:19.602Z,23.08
2018-05-04T15:35:47.988Z,23.30
2018-05-04T15:38:16.342Z,23.23
2018-05-04T15:40:44.722Z,22.88
2018-05-04T15:43:13.031Z,22.81
2018-05-04T15:45:41.468Z,22.58
2018-05-04T15:48:15.299Z,22.66
2018-05-04T15:50:49.167Z,22.28
2018-05-04T15:53:17.732Z,22.38
2018-05-04T15:55:46.854Z,22.56
2018-05-04T15:58:15.395Z,22.51
2018-05-04T16:00:43.720Z,22.35
2018-05-04T16:03:12.019Z,22.32
2018-05-04T16:05:40.357Z,22.41
2018-05-04T16:08:08.739Z,22.34
2018-05-04T16:10:37.837Z,22.39
2018-05-04T16:13:06.936Z,22.50
2018-05-04T16:15:36.533Z,22.55
2018-05-04T16:18:04.876Z,22.51
2018-05-04T16:20:33.259Z,22.32
2018-05-04T16:23:01.616Z,22.22
2018-05-04T16:25:29.971Z,22.16
2018-05-04T16:27:58.314Z,22.27
2018-05-04T16:30:26.667Z,22.33
2018-05-04T16:32:55.025Z,22.44
2018-05-04T16:35:23.353Z,22.62
2018-05-04T16:37:51.843Z,22.59
2018-05-04T16:40:20.174Z,22.63
2018-05-04T16:42:48.520Z,22.67
2018-05-04T16:45:16.894Z,22.52
2018-05-04T16:47:50.600Z,22.60
2018-05-04T16:50:19.717Z,22.53
2018-05-04T16:52:48.056Z,22.67
2018-05-04T16:55:16.383Z,22.82
2018-05-04T16:57:45.070Z,22.58
2018-05-04T17:00:13.416Z,22.62
2018-05-04T17:02:41.758Z,22.19
2018-05-04T17:05:10.248Z,21.93
2018-05-04T17:07:38.561Z,21.88
2018-05-04T17:10:06.904Z,21.80
2018-05-04T17:12:35.286Z,22.04
2018-05-04T17:15:03.622Z,21.88
2018-05-04T17:17:31.926Z,21.79
2018-05-04T17:20:00.773Z,21.90
2018-05-04T17:22:29.101Z,21.62
2018-05-04T17:24:57.417Z,21.53
2018-05-04T17:27:26.535Z,21.55
2018-05-04T17:29:54.888Z,21.60
2018-05-04T17:32:23.236Z,21.51
2018-05-04T17:34:51.602Z,21.69
2018-05-04T17:37:19.954Z,21.68
2018-05-04T17:39:48.268Z,21.59
2018-05-04T17:42:16.752Z,21.40
2018-05-04T17:44:45.104Z,21.48
2018-05-04T17:47:13.425Z,21.44
2018-05-04T17:49:41.804Z,20.99
2018-05-04T17:52:10.143Z,20.99
2018-05-04T17:54:38.465Z,21.08
2018-05-04T17:57:06.804Z,20.72
2018-05-04T17:59:35.134Z,20.61
2018-05-04T18:02:04.228Z,20.67
2018-05-04T18:04:33.735Z,20.47
2018-05-04T18:07:02.816Z,20.43
2018-05-04T18:09:31.159Z,20.42
2018-05-04T18:11:59.640Z,20.48
2018-05-04T18:14:27.977Z,20.41
2018-05-04T18:16:56.306Z,20.29
2018-05-04T18:19:24.645Z,20.28
2018-05-04T18:21:53.743Z,19.84
2018-05-04T18:24:22.819Z,19.67
2018-05-04T18:26:52.266Z,19.31
2018-05-04T18:29:20.638Z,18.92
2018-05-04T18:31:48.963Z,18.91
2018-05-04T18:34:17.338Z,18.51
2018-05-04T18:36:45.684Z,18.34
2018-05-04T18:39:13.982Z,18.39
2018-05-04T18:41:42.401Z,18.51
2018-05-04T18:44:11.498Z,18.46
2018-05-04T18:46:40.625Z,18.24
2018-05-04T18:49:09.252Z,18.45
2018-05-04T18:51:37.608Z,18.22
2018-05-04T18:54:05.974Z,17.98
2018-05-04T18:56:34.317Z,17.83
2018-05-04T18:59:03.424Z,17.95
2018-05-04T19:01:32.512Z,18.03
2018-05-04T19:04:02.027Z,17.93
2018-05-04T19:06:31.142Z,17.83
2018-05-04T19:08:59.484Z,17.64
2018-05-04T19:11:28.379Z,17.73
2018-05-04T19:13:56.708Z,17.64
2018-05-04T19:16:25.070Z,17.57
2018-05-04T19:18:53.414Z,17.37
2018-05-04T19:21:21.756Z,17.42
2018-05-04T19:23:50.081Z,17.40
2018-05-04T19:26:19.211Z,17.45
2018-05-04T19:28:47.629Z,17.40
2018-05-04T19:31:15.935Z,17.28
2018-05-04T19:33:45.452Z,17.31
2018-05-04T19:36:14.565Z,17.28
2018-05-04T19:38:42.920Z,17.08
2018-05-04T19:41:11.271Z,17.00
2018-05-04T19:43:39.571Z,17.07
2018-05-04T19:46:08.703Z,16.98
2018-05-04T19:48:37.032Z,16.95
2018-05-04T19:51:05.344Z,16.58
2018-05-04T19:53:33.668Z,16.70
2018-05-04T19:56:02.125Z,16.81
2018-05-04T19:58:30.457Z,16.64
2018-05-04T20:00:58.847Z,16.60
2018-05-04T20:03:27.211Z,16.61
2018-05-04T20:05:55.744Z,16.55
2018-05-04T20:08:24.078Z,16.61
2018-05-04T20:10:53.392Z,16.46
2018-05-04T20:13:21.723Z,16.51
2018-05-04T20:15:50.076Z,16.53
2018-05-04T20:18:18.540Z,16.57
2018-05-04T20:20:47.665Z,16.48
2018-05-04T20:23:15.984Z,16.48
2018-05-04T20:25:44.318Z,16.46
2018-05-04T20:28:12.644Z,16.36
2018-05-04T20:30:40.977Z,16.30
2018-05-04T20:33:09.321Z,16.33
2018-05-04T20:35:37.657Z,16.52
2018-05-04T20:38:05.995Z,16.29
2018-05-04T20:40:34.739Z,16.25
2018-05-04T20:43:03.052Z,16.19
2018-05-04T20:45:32.116Z,16.28
2018-05-04T20:48:00.529Z,16.14
2018-05-04T20:50:29.623Z,16.03
2018-05-04T20:52:58.710Z,16.04
2018-05-04T20:55:27.847Z,16.07
2018-05-04T20:57:56.196Z,16.06
2018-05-04T21:00:24.503Z,15.93
2018-05-04T21:02:53.337Z,15.94
2018-05-04T21:05:21.671Z,15.81
2018-05-04T21:07:50.015Z,15.86
2018-05-04T21:10:19.139Z,15.68
2018-05-04T21:12:47.476Z,15.59
2018-05-04T21:15:15.813Z,15.61
2018-05-04T21:17:44.175Z,15.46
2018-05-04T21:20:12.487Z,15.35
2018-05-04T21:22:40.837Z,15.35
2018-05-04T21:25:09.322Z,15.35
2018-05-04T21:27:37.649Z,15.29
2018-05-04T21:30:06.751Z,15.25
2018-05-04T21:32:35.880Z,15.36
2018-05-04T21:35:04.223Z,14.91
2018-05-04T21:37:33.344Z,15.14
2018-05-04T21:40:01.757Z,15.10
2018-05-04T21:42:30.070Z,15.02
2018-05-04T21:44:58.387Z,15.20
2018-05-04T21:47:27.033Z,15.22
2018-05-04T21:49:55.375Z,14.98
2018-05-04T21:52:23.673Z,15.01
2018-05-04T21:54:52.035Z,15.06
2018-05-04T21:57:20.365Z,15.09
2018-05-04T21:59:49.439Z,15.04
2018-05-04T22:02:18.147Z,14.98
2018-05-04T22:04:47.277Z,14.97
2018-05-04T22:07:16.022Z,14.91
2018-05-04T22:09:44.988Z,14.87
2018-05-04T22:12:13.307Z,14.83
2018-05-04T22:14:41.627Z,14.95
2018-05-04T22:17:09.989Z,14.79
2018-05-04T22:19:38.313Z,14.88
2018-05-04T22:22:06.650Z,14.65
2018-05-04T22:24:34.995Z,14.54
2018-05-04T22:27:04.084Z,14.65
2018-05-04T22:29:32.405Z,14.56
2018-05-04T22:32:00.841Z,14.58
2018-05-04T22:34:29.182Z,14.51
2018-05-04T22:36:57.514Z,14.27
2018-05-04T22:39:25.878Z,14.16
2018-05-04T22:41:54.951Z,14.38
2018-05-04T22:44:23.261Z,14.07
2018-05-04T22:46:51.634Z,14.20
2018-05-04T22:49:19.929Z,14.20
2018-05-04T22:51:49.050Z,14.18
2018-05-04T22:54:17.881Z,14.19
2018-05-04T22:56:46.183Z,14.19
2018-05-04T22:59:15.275Z,14.20
2018-05-04T23:01:43.618Z,14.20
2018-05-04T23:04:11.915Z,14.14
2018-05-04T23:06:40.257Z,13.93
2018-05-04T23:09:08.865Z,13.92
2018-05-04T23:11:37.943Z,14.00
2018-05-04T23:14:07.041Z,14.10
2018-05-04T23:16:35.519Z,14.10
2018-05-04T23:19:03.843Z,14.11
2018-05-04T23:21:32.156Z,14.07
2018-05-04T23:24:00.493Z,14.02
2018-05-04T23:26:28.811Z,14.04
2018-05-04T23:28:57.152Z,13.98
2018-05-04T23:31:26.286Z,13.80
2018-05-04T23:33:54.642Z,13.68
2018-05-04T23:36:23.018Z,13.72
2018-05-04T23:38:52.325Z,13.72
2018-05-04T23:41:21.452Z,13.69
2018-05-04T23:43:49.764Z,13.57
2018-05-04T23:46:18.102Z,13.47
2018-05-04T23:48:46.415Z,13.29
2018-05-04T23:51:14.730Z,13.28
2018-05-04T23:53:43.852Z,13.14
2018-05-04T23:56:12.174Z,13.23
2018-05-04T23:58:40.482Z,13.12
